Time;durP1;ratioP1;P1;durP2;ratioP2;P2;SDS_P1;SDS_P2;PMS_P1;PMS_P2;Temp;Humidity;BMP_temperature;BMP_pressure;BME280_temperature;BME280_humidity;BME280_pressure;Samples;Min_cycle;Max_cycle;Signal;HPM_P1;HPM_P2
2021/07/25 00:01:58;;;;;;;13.60;10.27;;;;;;;17.36;88.09;100682.80;1752380;81;21028;-71
2021/07/25 00:04:24;;;;;;;14.37;10.67;;;;;;;17.35;88.10;100678.51;1750790;81;21059;-71
2021/07/25 00:06:53;;;;;;;12.70;10.87;;;;;;;17.30;88.10;100682.09;1743844;81;21108;-71
2021/07/25 00:09:20;;;;;;;11.23;9.87;;;;;;;17.26;88.10;100683.00;1742841;81;21150;-71
2021/07/25 00:11:47;;;;;;;11.00;9.80;;;;;;;17.21;88.18;100675.80;1741165;81;21500;-72
2021/07/25 00:14:15;;;;;;;11.80;10.13;;;;;;;17.18;88.13;100676.40;1752902;81;21012;-71
2021/07/25 00:16:43;;;;;;;13.17;10.53;;;;;;;17.15;88.17;100677.55;1736179;81;21099;-71
2021/07/25 00:19:11;;;;;;;13.27;10.73;;;;;;;17.13;88.21;100682.42;1741212;81;21045;-71
2021/07/25 00:21:40;;;;;;;12.47;10.67;;;;;;;17.10;88.33;100679.77;1741937;81;21097;-71
2021/07/25 00:24:07;;;;;;;11.80;10.37;;;;;;;17.07;88.20;100682.51;1745057;81;21051;-72
2021/07/25 00:26:47;;;;;;;15.73;10.90;;;;;;;17.06;88.24;100682.81;1733441;81;21012;-71
2021/07/25 00:29:08;;;;;;;12.63;11.20;;;;;;;17.02;88.29;100685.31;1737893;80;21556;-71
2021/07/25 00:31:35;;;;;;;12.23;10.93;;;;;;;17.00;88.32;100677.25;1740531;81;21584;-70
2021/07/25 00:34:01;;;;;;;12.97;11.57;;;;;;;16.94;88.34;100677.09;1749002;81;21512;-71
2021/07/25 00:36:28;;;;;;;14.00;11.83;;;;;;;16.85;88.88;100679.12;1737989;81;22256;-76
2021/07/25 00:38:54;;;;;;;15.57;12.33;;;;;;;16.85;88.88;100679.12;1742078;80;21064;-77
2021/07/25 00:41:21;;;;;;;14.97;13.40;;;;;;;16.81;88.74;100673.25;1738847;80;21815;-76
2021/07/25 00:43:47;;;;;;;16.17;13.57;;;;;;;16.72;88.87;100669.62;1738205;81;21087;-74
2021/07/25 00:46:16;;;;;;;16.43;13.53;;;;;;;16.72;88.87;100669.62;1743557;81;21501;-75
2021/07/25 00:48:43;;;;;;;14.80;12.63;;;;;;;16.70;88.97;100677.99;1747688;80;21008;-74
2021/07/25 00:51:10;;;;;;;15.90;13.30;;;;;;;16.64;89.09;100673.77;1737041;80;22659;-75
2021/07/25 00:53:41;;;;;;;16.53;12.90;;;;;;;16.56;89.19;100676.60;1735248;81;22226;-75
2021/07/25 00:56:08;;;;;;;17.83;13.00;;;;;;;16.56;89.19;100676.60;1753058;81;21039;-75
2021/07/25 00:58:38;;;;;;;15.13;12.40;;;;;;;16.52;89.42;100673.42;1739533;80;21565;-76
2021/07/25 01:01:06;;;;;;;15.70;12.67;;;;;;;16.52;89.50;100680.98;1740830;81;22220;-76
2021/07/25 01:04:14;;;;;;;16.77;12.47;;;;;;;16.47;89.61;100682.40;1745447;81;21437;-76
2021/07/25 01:07:06;;;;;;;17.73;13.13;;;;;;;16.45;89.77;100689.97;1733769;81;21775;-76
2021/07/25 01:10:00;;;;;;;15.43;12.73;;;;;;;16.40;89.87;100686.02;1738442;80;22278;-76
2021/07/25 01:12:44;;;;;;;18.10;13.07;;;;;;;16.37;89.94;100677.16;1733758;81;21529;-76
2021/07/25 01:15:16;;;;;;;16.40;13.60;;;;;;;16.33;90.19;100681.55;1742787;81;21804;-77
2021/07/25 01:17:42;;;;;;;18.05;13.83;;;;;;;16.33;90.19;100681.55;1758495;81;21412;-75
2021/07/25 01:20:10;;;;;;;18.87;14.67;;;;;;;16.32;90.10;100694.75;1743498;80;21039;-75
2021/07/25 01:22:43;;;;;;;20.77;14.23;;;;;;;16.28;90.14;100688.34;1735702;81;21766;-77
2021/07/25 01:25:13;;;;;;;17.43;13.40;;;;;;;16.25;90.25;100691.63;1746936;81;21674;-76
2021/07/25 01:27:59;;;;;;;17.07;13.40;;;;;;;16.22;90.38;100691.66;1747923;81;22205;-75
2021/07/25 01:30:30;;;;;;;21.03;14.60;;;;;;;16.21;90.48;100698.70;1746119;80;21738;-76
2021/07/25 01:33:06;;;;;;;16.70;13.90;;;;;;;16.18;90.67;100690.64;1751610;81;22232;-76
2021/07/25 01:35:32;;;;;;;18.70;13.27;;;;;;;16.16;90.82;100698.23;1747460;81;21737;-74
2021/07/25 01:37:59;;;;;;;17.03;13.77;;;;;;;16.15;90.94;100690.67;1746909;81;21680;-74
2021/07/25 01:40:26;;;;;;;16.10;12.83;;;;;;;16.14;91.04;100697.16;1728619;81;21705;-74
2021/07/25 01:42:57;;;;;;;17.73;13.47;;;;;;;16.14;91.19;100694.46;1734238;81;21712;-75
2021/07/25 01:45:23;;;;;;;15.93;13.27;;;;;;;16.14;91.33;100689.07;1736871;81;21728;-74
2021/07/25 01:47:50;;;;;;;18.00;13.90;;;;;;;16.13;91.46;100687.48;1733189;81;21672;-75
2021/07/25 01:50:17;;;;;;;18.67;13.63;;;;;;;16.13;91.55;100694.22;1749268;80;21712;-74
2021/07/25 01:52:43;;;;;;;18.20;13.13;;;;;;;16.11;91.64;100695.04;1741858;81;21762;-74
2021/07/25 01:55:11;;;;;;;18.30;13.60;;;;;;;16.12;91.73;100698.02;1757679;81;21763;-74
2021/07/25 01:57:37;;;;;;;15.70;13.30;;;;;;;16.11;91.80;100697.73;1753024;81;21729;-75
2021/07/25 02:00:06;;;;;;;16.73;13.87;;;;;;;16.08;91.97;100688.88;1739072;80;21717;-75
2021/07/25 02:02:32;;;;;;;18.47;13.60;;;;;;;16.07;92.25;100692.68;1745945;81;22195;-75
2021/07/25 02:04:58;;;;;;;16.67;14.10;;;;;;;16.05;92.45;100696.20;1752820;81;21673;-74
2021/07/25 02:07:25;;;;;;;17.37;13.97;;;;;;;16.04;92.57;100694.60;1742750;81;21767;-75
2021/07/25 02:09:52;;;;;;;18.80;14.20;;;;;;;16.03;92.67;100695.70;1737016;80;21791;-75
2021/07/25 02:12:20;;;;;;;18.87;14.63;;;;;;;16.03;92.73;100700.30;1742057;81;21794;-75
2021/07/25 02:14:46;;;;;;;16.03;13.80;;;;;;;16.03;92.77;100699.75;1752570;81;21674;-75
2021/07/25 02:17:13;;;;;;;17.60;14.13;;;;;;;16.02;92.82;100699.47;1752628;81;21741;-75
2021/07/25 02:19:40;;;;;;;18.03;14.60;;;;;;;16.04;92.84;100699.20;1746391;81;21740;-75
2021/07/25 02:22:07;;;;;;;18.50;13.87;;;;;;;16.03;92.87;100697.05;1743935;80;21794;-74
2021/07/25 02:24:33;;;;;;;16.60;13.70;;;;;;;16.03;92.95;100701.64;1731688;82;21687;-74
2021/07/25 02:27:00;;;;;;;19.17;14.93;;;;;;;16.02;93.03;100700.81;1737661;81;21778;-74
2021/07/25 02:29:26;;;;;;;19.27;14.13;;;;;;;16.01;93.20;100708.66;1732672;81;21743;-74
2021/07/25 02:31:53;;;;;;;18.83;14.43;;;;;;;15.99;93.33;100705.46;1745881;80;21658;-74
2021/07/25 02:34:19;;;;;;;16.97;14.20;;;;;;;16.01;93.41;100710.55;1735300;81;21830;-74
2021/07/25 02:36:46;;;;;;;16.83;14.13;;;;;;;16.03;93.43;100707.03;1745051;81;22184;-74
2021/07/25 02:39:13;;;;;;;15.80;13.17;;;;;;;16.02;93.49;100708.90;1761683;81;21702;-74
2021/07/25 02:41:39;;;;;;;14.73;12.70;;;;;;;16.04;93.48;100711.32;1739828;80;21746;-75
2021/07/25 02:44:06;;;;;;;15.80;13.27;;;;;;;16.00;93.62;100711.09;1748402;81;21681;-75
2021/07/25 02:46:34;;;;;;;16.27;13.37;;;;;;;15.95;93.95;100713.30;1751671;81;21040;-75
2021/07/25 02:49:02;;;;;;;16.53;13.43;;;;;;;15.95;94.15;100717.88;1732038;81;21774;-75
2021/07/25 02:51:28;;;;;;;16.27;13.60;;;;;;;15.93;94.35;100716.84;1746506;81;21782;-74
2021/07/25 02:53:55;;;;;;;16.90;14.37;;;;;;;15.92;94.51;100714.42;1732507;81;21644;-74
2021/07/25 02:56:21;;;;;;;16.70;14.33;;;;;;;15.94;94.60;100715.73;1735755;81;21770;-76
2021/07/25 02:58:48;;;;;;;14.80;13.00;;;;;;;15.97;94.65;100718.41;1756532;81;21773;-74
2021/07/25 03:01:14;;;;;;;17.87;13.77;;;;;;;16.01;94.67;100718.08;1740580;81;21707;-74
2021/07/25 03:03:41;;;;;;;16.47;13.50;;;;;;;16.08;94.62;100722.56;1748179;81;21788;-75
2021/07/25 03:06:08;;;;;;;14.90;12.93;;;;;;;16.08;94.62;100722.56;1735596;81;21119;-74
2021/07/25 03:08:36;;;;;;;15.57;12.73;;;;;;;16.18;94.75;100723.77;1733973;81;21752;-74
2021/07/25 03:11:08;;;;;;;14.00;12.20;;;;;;;16.18;94.75;100723.77;1736475;81;21609;-75
2021/07/25 03:13:36;;;;;;;12.40;11.10;;;;;;;16.18;94.61;100726.47;1753778;81;21040;-75
2021/07/25 03:16:06;;;;;;;13.53;11.83;;;;;;;16.18;94.70;100731.06;1754806;81;21000;-75
2021/07/25 03:18:33;;;;;;;13.97;11.87;;;;;;;16.16;94.81;100737.30;1734487;81;21527;-74
2021/07/25 03:21:00;;;;;;;14.33;12.83;;;;;;;16.13;95.26;100740.02;1742991;81;21151;-74
2021/07/25 03:23:27;;;;;;;16.33;14.13;;;;;;;16.16;95.23;100739.45;1736660;81;21043;-75
2021/07/25 03:25:54;;;;;;;16.87;14.20;;;;;;;16.25;95.42;100737.44;1743689;81;22182;-75
2021/07/25 03:28:22;;;;;;;14.77;13.27;;;;;;;16.35;95.46;100745.38;1745200;81;21076;-73
2021/07/25 03:30:50;;;;;;;16.10;12.90;;;;;;;16.40;95.27;100740.73;1741911;80;21120;-70
2021/07/25 03:33:18;;;;;;;14.10;12.37;;;;;;;16.48;95.37;100744.66;1735142;81;21048;-70
2021/07/25 03:35:46;;;;;;;14.00;12.50;;;;;;;16.56;95.35;100744.56;1739472;81;21594;-69
2021/07/25 03:38:14;;;;;;;15.63;12.70;;;;;;;16.61;95.35;100748.52;1734555;81;21595;-69
2021/07/25 03:40:43;;;;;;;15.07;12.50;;;;;;;16.69;95.32;100742.48;1737228;80;21539;-70
2021/07/25 03:43:11;;;;;;;14.63;12.97;;;;;;;16.79;95.23;100749.09;1746091;81;20997;-70
2021/07/25 03:45:45;;;;;;;13.80;12.37;;;;;;;16.90;95.13;100752.42;1748960;81;21016;-70
2021/07/25 03:48:12;;;;;;;16.00;13.73;;;;;;;17.01;95.01;100755.23;1734818;81;21098;-70
2021/07/25 03:50:40;;;;;;;15.10;13.43;;;;;;;17.14;94.86;100756.34;1747759;80;21060;-71
2021/07/25 03:53:08;;;;;;;14.00;12.53;;;;;;;17.26;94.68;100768.03;1740696;81;21479;-70
2021/07/25 03:55:35;;;;;;;19.03;13.77;;;;;;;17.39;94.49;100761.86;1731339;82;21000;-70
2021/07/25 03:58:03;;;;;;;15.80;13.40;;;;;;;17.52;94.31;100761.08;1743501;81;21056;-70
2021/07/25 04:00:30;;;;;;;15.43;13.20;;;;;;;17.66;94.05;100758.94;1736007;80;21047;-70
2021/07/25 04:02:56;;;;;;;15.27;13.67;;;;;;;17.78;93.81;100757.93;1744172;81;21126;-70
2021/07/25 04:05:24;;;;;;;15.90;13.87;;;;;;;17.91;93.60;100759.83;1733578;81;21143;-71
2021/07/25 04:07:50;;;;;;;16.80;14.50;;;;;;;18.04;93.37;100762.27;1740454;81;20953;-70
2021/07/25 04:10:17;;;;;;;16.23;14.17;;;;;;;18.17;93.08;100760.11;1739999;81;21016;-71
2021/07/25 04:12:44;;;;;;;17.10;14.20;;;;;;;18.32;92.73;100756.81;1738365;81;21047;-71
2021/07/25 04:15:12;;;;;;;16.47;14.37;;;;;;;18.45;92.32;100754.07;1754059;81;21049;-71
2021/07/25 04:17:39;;;;;;;16.63;13.47;;;;;;;18.60;91.88;100760.26;1759228;81;21080;-70
2021/07/25 04:20:08;;;;;;;16.63;14.73;;;;;;;18.73;91.42;100761.59;1752158;81;20990;-70
2021/07/25 04:22:37;;;;;;;16.63;14.63;;;;;;;18.83;90.89;100760.55;1736453;80;21052;-70
2021/07/25 04:25:05;;;;;;;17.50;14.80;;;;;;;18.96;90.40;100764.31;1735779;81;21555;-71
2021/07/25 04:27:32;;;;;;;17.07;14.97;;;;;;;19.08;89.57;100762.37;1733924;81;21558;-70
2021/07/25 04:30:00;;;;;;;17.67;14.47;;;;;;;19.21;88.76;100765.56;1735627;81;21451;-70
2021/07/25 04:32:27;;;;;;;17.27;15.37;;;;;;;19.35;87.89;100765.50;1743524;80;21702;-69
2021/07/25 04:34:54;;;;;;;16.13;14.33;;;;;;;19.47;86.94;100764.91;1738038;81;21075;-70
2021/07/25 04:37:28;;;;;;;16.37;14.57;;;;;;;19.60;85.89;100774.29;1742687;81;21071;-69
2021/07/25 04:39:51;;;;;;;18.60;14.23;;;;;;;19.73;85.12;100769.91;1748091;81;21036;-70
2021/07/25 04:42:18;;;;;;;17.47;14.73;;;;;;;19.84;84.44;100768.53;1740355;80;21121;-70
2021/07/25 04:44:57;;;;;;;16.20;14.30;;;;;;;19.96;84.08;100773.34;1749024;81;20957;-70
2021/07/25 04:47:28;;;;;;;16.30;14.00;;;;;;;20.06;83.43;100774.40;1750121;81;21008;-70
2021/07/25 04:50:11;;;;;;;19.37;14.13;;;;;;;20.18;82.80;100775.72;1718379;81;21091;-69
2021/07/25 04:52:42;;;;;;;16.10;14.40;;;;;;;20.28;82.10;100778.92;1741634;80;21045;-69
2021/07/25 04:55:11;;;;;;;17.30;14.33;;;;;;;20.37;81.52;100781.09;1749699;81;21815;-69
2021/07/25 04:57:42;;;;;;;15.47;13.83;;;;;;;20.47;81.29;100785.42;1749391;81;21060;-69
2021/07/25 05:00:14;;;;;;;15.28;13.50;;;;;;;20.60;80.92;100783.70;1752809;81;21036;-70
2021/07/25 05:02:43;;;;;;;17.20;14.20;;;;;;;20.71;80.41;100774.12;1738861;80;21016;-70
2021/07/25 05:05:12;;;;;;;16.13;14.37;;;;;;;20.84;79.51;100773.71;1745585;81;21173;-71
2021/07/25 05:07:42;;;;;;;16.07;13.83;;;;;;;20.93;79.07;100775.86;1746294;81;21112;-71
2021/07/25 05:10:11;;;;;;;15.80;14.17;;;;;;;21.02;78.66;100778.55;1755504;81;21084;-70
2021/07/25 05:12:49;;;;;;;15.60;13.37;;;;;;;;;;1746052;80;21079;-69
2021/07/25 05:15:21;;;;;;;14.67;13.17;;;;;;;21.25;76.66;100779.94;1747569;81;21448;-70
2021/07/25 05:17:57;;;;;;;19.37;12.83;;;;;;;21.35;75.92;100782.91;1734406;81;21059;-70
2021/07/25 05:20:53;;;;;;;15.93;13.40;;;;;;;21.45;75.96;100776.33;1733641;81;21551;-69
2021/07/25 05:23:39;;;;;;;15.00;13.13;;;;;;;21.52;74.69;100777.44;1737618;80;21087;-69
2021/07/25 05:26:09;;;;;;;15.20;13.27;;;;;;;21.65;74.19;100778.35;1740762;81;21063;-70
2021/07/25 05:28:37;;;;;;;19.63;13.23;;;;;;;21.79;73.62;100780.84;1734313;81;21417;-70
2021/07/25 05:31:07;;;;;;;16.30;13.77;;;;;;;21.90;73.49;100784.78;1732406;81;21093;-70
2021/07/25 05:33:34;;;;;;;17.47;13.97;;;;;;;22.00;72.84;100778.97;1741407;81;21121;-70
2021/07/25 05:36:01;;;;;;;16.33;14.17;;;;;;;22.14;72.36;100780.64;1742677;81;21120;-70
2021/07/25 05:38:28;;;;;;;15.67;13.70;;;;;;;22.27;71.83;100778.84;1745015;81;21080;-70
2021/07/25 05:40:54;;;;;;;14.80;13.20;;;;;;;22.38;71.25;100784.94;1747590;81;21024;-70
2021/07/25 05:43:21;;;;;;;14.87;13.33;;;;;;;22.44;70.53;100782.25;1737795;81;21004;-70
2021/07/25 05:45:47;;;;;;;15.40;13.60;;;;;;;22.55;70.73;100785.94;1741061;80;21822;-70
2021/07/25 05:48:14;;;;;;;17.70;13.63;;;;;;;22.67;70.68;100783.25;1741069;81;21579;-70
2021/07/25 05:50:41;;;;;;;16.93;12.87;;;;;;;22.82;70.05;100780.50;1734242;81;21107;-70
2021/07/25 05:53:08;;;;;;;16.27;13.23;;;;;;;22.97;69.16;100779.09;1736996;81;21114;-71
2021/07/25 05:55:36;;;;;;;16.93;13.23;;;;;;;23.06;68.47;100781.97;1743404;81;21099;-70
2021/07/25 05:58:03;;;;;;;17.43;13.40;;;;;;;23.17;67.97;100786.45;1747414;81;21314;-70
2021/07/25 06:00:30;;;;;;;16.67;13.43;;;;;;;23.28;67.48;100784.88;1743720;81;21075;-70
2021/07/25 06:03:02;;;;;;;16.53;12.87;;;;;;;23.37;67.14;100784.23;1734029;80;21120;-70
2021/07/25 06:05:35;;;;;;;22.00;13.77;;;;;;;23.49;65.72;100792.98;1742787;81;21103;-71
2021/07/25 06:08:06;;;;;;;19.33;14.30;;;;;;;23.57;64.86;100785.28;1736524;81;21055;-70
2021/07/25 06:10:33;;;;;;;15.93;12.70;;;;;;;23.70;64.72;100785.33;1751326;81;21102;-70
2021/07/25 06:13:04;;;;;;;14.47;12.07;;;;;;;23.82;64.07;100786.67;1743750;80;21110;-70
2021/07/25 06:15:32;;;;;;;14.53;12.53;;;;;;;23.90;63.63;100785.78;1743395;81;21387;-71
2021/07/25 06:18:05;;;;;;;15.00;12.37;;;;;;;23.96;62.85;100784.99;1736614;81;21072;-71
2021/07/25 06:20:31;;;;;;;;;;;;;;;24.03;63.35;100788.73;1757717;81;21130;-72
2021/07/25 06:22:58;;;;;;;15.17;10.70;;;;;;;24.17;61.93;100787.58;1739227;80;21475;-70
2021/07/25 06:25:29;;;;;;;16.53;11.97;;;;;;;24.26;61.67;100791.77;1739601;81;21098;-70
2021/07/25 06:28:02;;;;;;;19.23;12.00;;;;;;;24.34;60.00;100785.95;1740835;81;21071;-70
2021/07/25 06:30:27;;;;;;;16.10;11.73;;;;;;;24.46;59.52;100790.63;1730900;81;21055;-70
2021/07/25 06:33:02;;;;;;;14.10;10.97;;;;;;;24.55;58.27;100789.36;1730462;81;21048;-71
2021/07/25 06:35:33;;;;;;;15.73;10.50;;;;;;;24.66;57.83;100788.86;1738859;81;21547;-70
2021/07/25 06:38:03;;;;;;;13.18;10.13;;;;;;;24.80;57.64;100787.89;1745770;81;21048;-70
2021/07/25 06:40:29;;;;;;;11.93;9.97;;;;;;;24.90;56.75;100792.86;1735367;81;21028;-70
2021/07/25 06:42:59;;;;;;;11.17;9.50;;;;;;;24.97;53.97;100784.06;1734111;81;21040;-70
2021/07/25 06:45:26;;;;;;;11.60;8.80;;;;;;;25.02;53.67;100784.61;1740194;80;21095;-70
2021/07/25 06:47:53;;;;;;;10.40;9.30;;;;;;;25.10;53.09;100784.80;1731268;81;21147;-70
2021/07/25 06:50:25;;;;;;;11.97;9.37;;;;;;;25.16;52.72;100786.16;1738811;81;21119;-70
2021/07/25 06:52:53;;;;;;;10.50;9.13;;;;;;;25.22;51.74;100792.39;1731213;81;21103;-70
2021/07/25 06:55:20;;;;;;;10.73;9.60;;;;;;;25.28;52.08;100793.52;1741944;80;21065;-70
2021/07/25 06:57:47;;;;;;;11.17;9.00;;;;;;;25.36;51.97;100795.27;1735374;80;21170;-70
2021/07/25 07:00:14;;;;;;;9.73;8.43;;;;;;;25.41;51.79;100799.13;1739047;81;21501;-71
2021/07/25 07:02:54;;;;;;;11.07;8.93;;;;;;;25.47;52.81;100803.98;1744416;81;20989;-71
2021/07/25 07:05:27;;;;;;;11.53;9.63;;;;;;;25.47;52.10;100808.09;1733979;81;21423;-71
2021/07/25 07:07:56;;;;;;;12.77;9.83;;;;;;;25.47;52.56;100801.83;1746699;81;21075;-71
2021/07/25 07:10:25;;;;;;;12.17;9.90;;;;;;;25.57;52.58;100805.41;1737272;81;22082;-72
2021/07/25 07:12:54;;;;;;;12.07;10.85;;;;;;;25.67;52.98;100814.45;1739818;81;21032;-72
2021/07/25 07:15:22;;;;;;;10.90;9.80;;;;;;;25.78;53.03;100806.49;1741561;81;20969;-71
2021/07/25 07:17:52;;;;;;;11.17;9.77;;;;;;;25.86;52.58;100811.00;1740400;80;21084;-71
2021/07/25 07:20:20;;;;;;;11.37;10.00;;;;;;;25.92;52.76;100815.06;1744070;81;22201;-70
2021/07/25 07:22:55;;;;;;;11.03;9.90;;;;;;;26.05;52.53;100808.91;1759040;81;21031;-70
2021/07/25 07:25:25;;;;;;;12.83;10.10;;;;;;;26.16;52.20;100808.60;1750686;80;22198;-70
2021/07/25 07:27:51;;;;;;;11.33;10.17;;;;;;;26.25;51.12;100804.86;1748476;81;21095;-70
2021/07/25 07:30:18;;;;;;;12.50;10.63;;;;;;;26.30;50.66;100805.38;1734790;81;21618;-70
2021/07/25 07:32:45;;;;;;;11.10;9.67;;;;;;;26.23;51.03;100809.34;1750406;81;20988;-70
2021/07/25 07:35:11;;;;;;;11.77;10.30;;;;;;;26.16;51.10;100805.08;1739000;80;21079;-70
2021/07/25 07:37:39;;;;;;;11.27;10.10;;;;;;;26.09;51.70;100800.20;1736373;81;21689;-71
2021/07/25 07:40:07;;;;;;;11.90;10.60;;;;;;;26.17;52.45;100801.97;1746679;81;20985;-71
2021/07/25 07:42:34;;;;;;;12.43;10.83;;;;;;;26.27;52.63;100801.20;1741962;81;21024;-70
2021/07/25 07:45:02;;;;;;;11.20;10.10;;;;;;;26.40;51.91;100804.82;1739445;80;21094;-70
2021/07/25 07:47:29;;;;;;;11.07;9.87;;;;;;;26.54;51.17;100806.31;1742030;81;21111;-70
2021/07/25 07:49:56;;;;;;;12.03;10.63;;;;;;;26.66;51.46;100804.23;1742579;81;21131;-70
2021/07/25 07:52:22;;;;;;;11.37;10.23;;;;;;;26.76;50.61;100803.44;1743615;81;21079;-71
2021/07/25 07:54:50;;;;;;;11.03;9.93;;;;;;;26.83;50.34;100807.11;1732289;81;21622;-71
2021/07/25 07:57:17;;;;;;;11.73;10.53;;;;;;;26.95;50.28;100809.47;1743360;80;21574;-71
2021/07/25 07:59:44;;;;;;;12.23;10.30;;;;;;;27.00;50.01;100804.49;1740328;81;21004;-71
2021/07/25 08:02:10;;;;;;;10.33;9.27;;;;;;;27.13;50.26;100813.38;1734478;81;21491;-70
2021/07/25 08:04:38;;;;;;;11.67;9.13;;;;;;;27.26;48.66;100809.90;1723712;81;21602;-73
2021/07/25 08:07:05;;;;;;;10.03;8.63;;;;;;;27.28;47.51;100810.34;1739624;80;21028;-72
2021/07/25 08:09:32;;;;;;;9.77;8.87;;;;;;;27.28;46.61;100807.02;1737359;81;21000;-70
2021/07/25 08:12:02;;;;;;;10.73;8.73;;;;;;;27.29;46.56;100811.34;1740538;81;20952;-69
2021/07/25 08:14:32;;;;;;;9.58;8.43;;;;;;;27.36;46.49;100815.57;1741440;81;21129;-70
2021/07/25 08:16:58;;;;;;;8.87;8.07;;;;;;;27.45;45.34;100813.97;1743898;80;20992;-70
2021/07/25 08:19:25;;;;;;;9.17;8.27;;;;;;;27.49;44.63;100814.03;1743155;81;21051;-71
2021/07/25 08:21:52;;;;;;;9.97;7.43;;;;;;;27.50;44.20;100809.53;1737503;81;21141;-70
2021/07/25 08:24:18;;;;;;;8.37;7.37;;;;;;;27.52;42.61;100809.19;1755778;81;21371;-70
2021/07/25 08:26:45;;;;;;;9.33;8.43;;;;;;;27.61;43.41;100809.73;1731579;81;21944;-70
2021/07/25 08:29:11;;;;;;;9.23;8.30;;;;;;;27.72;43.71;100811.28;1736959;81;21566;-70
2021/07/25 08:31:39;;;;;;;10.63;8.43;;;;;;;27.83;44.42;100812.26;1736866;81;21028;-71
2021/07/25 08:34:05;;;;;;;9.03;7.97;;;;;;;27.90;44.16;100810.99;1740904;81;21122;-70
2021/07/25 08:36:32;;;;;;;8.40;7.57;;;;;;;27.96;43.61;100810.11;1744453;80;21039;-70
2021/07/25 08:38:59;;;;;;;10.03;7.63;;;;;;;28.06;44.16;100816.33;1740625;81;21807;-72
2021/07/25 08:41:53;;;;;;;8.60;7.70;;;;;;;28.15;43.60;100813.34;1735602;81;21087;-72
2021/07/25 08:44:38;;;;;;;8.23;7.20;;;;;;;28.28;42.86;100810.58;1753303;81;21063;-70
2021/07/25 08:47:10;;;;;;;8.03;6.73;;;;;;;28.39;41.48;100808.78;1680787;81;21638;-72
2021/07/25 08:49:48;;;;;;;7.50;6.60;;;;;;;28.45;39.64;100805.14;1733617;81;21130;-71
2021/07/25 08:52:23;;;;;;;7.87;6.80;;;;;;;28.48;40.98;100808.52;1735737;80;21528;-71
2021/07/25 08:54:51;;;;;;;8.17;6.97;;;;;;;28.56;40.17;100801.94;1756185;81;21119;-71
2021/07/25 08:57:21;;;;;;;7.77;6.73;;;;;;;28.73;40.93;100807.47;1734362;80;21091;-70
2021/07/25 08:59:51;;;;;;;7.78;6.35;;;;;;;28.88;40.77;100804.29;1746459;81;21037;-70
2021/07/25 09:02:22;;;;;;;8.33;6.60;;;;;;;29.02;39.29;100800.34;1754879;81;21697;-71
2021/07/25 09:04:50;;;;;;;;;;;;;;;29.02;38.34;100802.30;1737834;81;21130;-71
2021/07/25 09:07:19;;;;;;;9.27;6.60;;;;;;;29.10;38.43;100802.59;1733600;80;20138;-71
2021/07/25 09:09:50;;;;;;;8.10;5.80;;;;;;;29.20;35.57;100806.83;1738223;81;21079;-71
2021/07/25 09:12:18;;;;;;;8.50;6.60;;;;;;;29.23;35.82;100803.91;1731669;81;21060;-71
2021/07/25 09:14:49;;;;;;;8.03;6.50;;;;;;;29.31;35.98;100796.50;1748667;81;21056;-71
2021/07/25 09:17:16;;;;;;;6.65;5.92;;;;;;;29.32;35.65;100797.52;1756452;80;21096;-71
2021/07/25 09:20:20;;;;;;;8.90;6.37;;;;;;;29.43;36.34;100801.73;1735553;81;21037;-71
2021/07/25 09:22:55;;;;;;;8.30;6.30;;;;;;;29.49;36.59;100803.56;1739201;81;21013;-71
2021/07/25 09:25:30;;;;;;;9.48;6.87;;;;;;;29.64;35.57;100804.69;1744664;81;21099;-71
2021/07/25 09:28:03;;;;;;;9.50;6.67;;;;;;;29.75;35.05;100806.16;1751343;80;21321;-71
2021/07/25 09:30:30;;;;;;;8.08;6.05;;;;;;;29.75;34.60;100803.41;1736288;81;21136;-71
2021/07/25 09:32:57;;;;;;;8.65;6.60;;;;;;;29.82;35.12;100803.46;1747621;81;21190;-71
2021/07/25 09:35:33;;;;;;;8.60;6.70;;;;;;;29.92;35.24;100804.71;1734252;81;21047;-71
2021/07/25 09:38:08;;;;;;;8.10;6.40;;;;;;;30.14;34.82;100811.94;1740591;80;21059;-71
2021/07/25 09:40:37;;;;;;;8.13;6.05;;;;;;;30.38;33.06;100803.63;1741606;81;20950;-71
2021/07/25 09:43:24;;;;;;;7.45;6.65;;;;;;;30.35;33.21;100807.75;1736041;81;21121;-71
2021/07/25 09:45:58;;;;;;;8.95;6.30;;;;;;;30.41;32.32;100811.72;1749394;81;21499;-71
2021/07/25 09:48:33;;;;;;;8.90;6.55;;;;;;;30.63;32.47;100803.53;1736445;81;21063;-71
2021/07/25 09:51:19;;;;;;;9.10;6.20;;;;;;;30.75;31.63;100806.73;1748232;81;21476;-71
2021/07/25 09:53:49;;;;;;;8.03;5.42;;;;;;;30.65;31.63;100806.11;1739194;81;20937;-71
2021/07/25 09:56:23;;;;;;;7.90;6.08;;;;;;;30.63;30.88;100806.29;1742884;81;21062;-71
2021/07/25 09:58:49;;;;;;;6.53;5.83;;;;;;;30.73;31.29;100808.30;1740856;80;21190;-71
2021/07/25 10:01:40;;;;;;;9.15;6.70;;;;;;;30.77;30.75;100813.28;1739265;81;21002;-71
2021/07/25 10:04:17;;;;;;;7.80;5.62;;;;;;;30.71;31.80;100814.21;1735236;81;20984;-71
2021/07/25 10:06:48;;;;;;;8.40;6.83;;;;;;;30.74;31.86;100809.89;1733719;81;21021;-72
2021/07/25 10:09:18;;;;;;;7.53;6.72;;;;;;;30.66;32.54;100818.70;1748328;80;21071;-72
2021/07/25 10:11:58;;;;;;;9.13;7.42;;;;;;;30.47;33.77;100817.64;1737375;81;21000;-72
2021/07/25 10:14:26;;;;;;;7.75;6.15;;;;;;;30.33;33.50;100810.88;1761887;81;20969;-72
2021/07/25 10:16:56;;;;;;;8.58;6.62;;;;;;;30.33;34.18;100811.47;1755525;81;21175;-72
2021/07/25 10:19:36;;;;;;;7.28;5.87;;;;;;;30.28;33.70;100817.36;1740694;81;21780;-72
2021/07/25 10:22:11;;;;;;;6.62;5.47;;;;;;;30.22;34.20;100816.14;1741412;81;21156;-80
2021/07/25 10:24:40;;;;;;;9.18;6.40;;;;;;;30.14;33.56;100809.19;1736448;80;21048;-79
2021/07/25 10:27:06;;;;;;;7.70;6.25;;;;;;;30.12;34.95;100814.88;1746574;81;21004;-79
2021/07/25 10:29:37;;;;;;;7.42;5.90;;;;;;;30.23;33.85;100812.20;1744329;80;21032;-79
2021/07/25 10:32:06;;;;;;;8.65;6.30;;;;;;;30.41;33.52;100811.72;1722945;81;21554;-79
2021/07/25 10:34:34;;;;;;;7.75;6.28;;;;;;;30.53;34.29;100813.34;1744339;80;21496;-72
2021/07/25 10:37:01;;;;;;;7.90;6.22;;;;;;;30.61;34.27;100818.50;1711162;81;21036;-71
2021/07/25 10:39:28;;;;;;;8.88;6.22;;;;;;;30.79;32.62;100810.91;1742375;81;21052;-71
2021/07/25 10:42:01;;;;;;;9.38;6.55;;;;;;;30.75;31.79;100811.47;1740129;81;21032;-72
2021/07/25 10:44:28;;;;;;;9.63;6.80;;;;;;;30.67;31.97;100818.11;1754548;81;21062;-71
2021/07/25 10:47:21;;;;;;;8.95;6.37;;;;;;;30.53;33.07;100822.39;1742630;81;21131;-83
2021/07/25 10:50:06;;;;;;;10.82;6.00;;;;;;;30.44;33.76;100821.16;1741969;80;21024;-71
2021/07/25 10:52:55;;;;;;;8.78;6.72;;;;;;;30.46;33.28;100816.84;1749479;81;21012;-72
2021/07/25 10:55:44;;;;;;;7.70;6.08;;;;;;;30.52;32.80;100818.66;1750382;81;21063;-72
2021/07/25 10:58:21;;;;;;;8.35;6.15;;;;;;;30.50;32.40;100814.89;1732798;81;21087;-71
2021/07/25 11:00:54;;;;;;;6.97;5.95;;;;;;;30.51;30.74;100808.22;1733487;80;21159;-70
2021/07/25 11:03:35;;;;;;;8.78;6.35;;;;;;;30.47;31.44;100811.56;1746467;81;21044;-70
2021/07/25 11:06:09;;;;;;;;;;;;;;;30.44;31.29;100812.33;1747578;81;21024;-70
2021/07/25 11:08:43;;;;;;;7.35;5.65;;;;;;;30.41;30.79;100817.83;1742110;81;20172;-70
2021/07/25 11:11:39;;;;;;;7.12;5.53;;;;;;;30.35;30.50;100809.13;1739791;80;21048;-70
2021/07/25 11:14:07;;;;;;;5.30;4.65;;;;;;;30.37;29.62;100806.76;1741438;81;21548;-72
2021/07/25 11:16:46;;;;;;;7.12;5.17;;;;;;;30.49;29.94;100803.67;1753797;81;21035;-72
2021/07/25 11:19:27;;;;;;;5.72;5.10;;;;;;;30.67;29.70;100807.09;1739115;81;21104;-72
2021/07/25 11:21:55;;;;;;;5.30;4.42;;;;;;;30.90;29.56;100804.86;1741934;81;21488;-71
2021/07/25 11:24:30;;;;;;;7.37;5.55;;;;;;;31.07;28.20;100809.62;1730922;81;21075;-72
2021/07/25 11:26:59;;;;;;;6.55;5.35;;;;;;;31.08;28.48;100812.56;1745613;81;21160;-72
2021/07/25 11:29:40;;;;;;;8.78;5.33;;;;;;;31.03;29.50;100812.15;1731571;80;21563;-72
2021/07/25 11:32:33;;;;;;;6.20;5.08;;;;;;;31.05;28.99;100803.69;1738721;81;21154;-71